Huvudsida
METAR-TAF:

METAR-TAF

Flygplatser :

Aeraport Vitsebsk

Vitsebsk, Vitryssland

latitud: 55-10N, longitud: 030-13E, höjd: 176 m

Aktuellt väderrapport

Denna rapport gjordes för 48 minuter sedan, klockan 07:00 UTC
Vind 8 kt från väst/nordväst i byarna ända upp till 14 kt
Temperatur 2°C
Fuktighet 69%
Tryck 1029 hPa
Sikt 10 km eller mer
Inga moln under 1 500 m eller inga cumulonimbus

METAR: UMII 050700Z 29004G07MPS CAVOK 02/M03 Q1029 NOSIG

Tid: 10:48 (07:48 UTC)

Väderprognos

Denna rapport gjordes för 3 timmar och 13 minuter sedan, klockan 04:35 UTC
Prognos gäller från 05 kl. 05 UTC till 05 kl. 15 UTC
Vind 8 kt från väst i byarna ända upp till 17 kt
Sikt 10 km eller mer
Spridda moln på en höjd av 2000 ft
Temporärt
från 05 kl. 08 UTC till 05 kl. 15 UTC
Vind 14 kt från väst/nordväst i byarna ända upp till 23 kt

TAF: UMII 050435Z 0505/0515 28004G09MPS 9999 SCT020 TEMPO 0508/0515 30007G12MPS

Aktuella väderrapporter och prognoser från 4000 flygplatser (METAR- och TAF-rapporter).

De tillgängliga stationerna syns som gula och röda prickar på kartan.

För musen över prickarna för att se namnen på stationerna.

Klicka sedan för att få väderrapporter och prognoser.

För att ändra kartan: Klicka på de gröna knapparna med ett svart kors på för att zooma in; den gröna knappen med ett streck på för att zooma ut; eller på de gröna pilarna för angränsande kartor.


METAR-TAF: